Time;durP1;ratioP1;P1;durP2;ratioP2;P2;SDS_P1;SDS_P2;PMS_P1;PMS_P2;Temp;Humidity;BMP_temperature;BMP_pressure;BME280_temperature;BME280_humidity;BME280_pressure;Samples;Min_cycle;Max_cycle;Signal;HPM_P1;HPM_P2
2022/04/05 00:00:57;;;;;;;11.00;9.90;;;5.90;98.40;;;6.61;59.17;97418.63;5203158;28;20296;-58
2022/04/05 00:03:30;;;;;;;10.50;9.70;;;5.80;98.30;;;6.62;59.26;97416.19;5206577;28;20280;-59
2022/04/05 00:06:03;;;;;;;11.00;10.00;;;5.90;98.50;;;6.61;59.41;97409.38;5202035;28;20221;-56
2022/04/05 00:08:36;;;;;;;10.60;9.70;;;5.90;98.70;;;6.60;60.45;97397.44;5200793;28;20648;-57
2022/04/05 00:11:09;;;;;;;10.93;10.03;;;5.90;99.10;;;6.64;60.47;97399.41;5202843;28;20225;-59
2022/04/05 00:13:44;;;;;;;9.40;8.63;;;5.90;99.30;;;6.64;60.66;97401.94;5204933;28;20301;-58
2022/04/05 00:16:17;;;;;;;10.33;9.53;;;5.80;99.50;;;6.62;60.67;97397.53;5202716;28;20294;-59
2022/04/05 00:18:50;;;;;;;10.43;9.53;;;5.80;99.60;;;6.58;60.59;97383.78;5202461;28;20228;-59
2022/04/05 00:21:23;;;;;;;10.83;9.83;;;5.80;99.30;;;6.58;59.63;97383.78;5202185;28;20372;-60
2022/04/05 00:23:56;;;;;;;10.67;9.77;;;5.80;99.00;;;6.58;59.92;97376.16;5200887;28;20769;-60
2022/04/05 00:26:29;;;;;;;10.87;9.80;;;5.80;98.90;;;6.50;60.96;97375.66;5203335;28;21250;-60
2022/04/05 00:29:04;;;;;;;11.23;10.23;;;5.80;99.30;;;6.44;61.02;97377.81;5201676;28;20663;-58
2022/04/05 00:31:37;;;;;;;10.73;9.73;;;5.80;99.30;;;6.47;60.87;97374.59;5203134;28;20228;-60
2022/04/05 00:34:10;;;;;;;10.10;9.20;;;5.70;99.30;;;6.46;60.89;97372.81;5200874;28;20619;-57
2022/04/05 00:36:44;;;;;;;11.10;10.20;;;5.70;99.70;;;6.73;59.84;97366.97;5202244;28;20237;-58
2022/04/05 00:39:17;;;;;;;10.57;9.53;;;5.80;99.30;;;6.62;59.99;97365.41;5201337;28;20206;-57
2022/04/05 00:41:50;;;;;;;10.03;9.23;;;5.80;99.40;;;6.63;59.83;97366.28;5203198;28;20222;-60
2022/04/05 00:44:24;;;;;;;10.13;9.23;;;5.90;99.20;;;6.57;60.87;97373.50;5194221;28;20217;-57
2022/04/05 00:47:14;;;;;;;10.93;10.00;;;5.80;99.30;;;6.55;60.63;97373.41;5201774;28;20573;-57
2022/04/05 00:49:48;;;;;;;10.07;9.17;;;5.80;99.30;;;6.57;60.96;97366.78;5204365;28;20204;-59
2022/04/05 00:52:23;;;;;;;11.63;10.53;;;5.80;99.70;;;6.60;60.96;97364.44;5200741;28;20197;-56
2022/04/05 00:54:59;;;;;;;10.70;9.90;;;5.80;99.70;;;6.59;60.75;97366.88;5201551;28;20315;-59
2022/04/05 00:57:34;;;;;;;10.37;9.47;;;5.80;99.40;;;6.64;60.08;97362.94;5199462;28;20194;-58
2022/04/05 01:00:10;;;;;;;9.97;9.10;;;5.90;99.30;;;6.53;60.49;97359.75;5203649;28;20200;-56
2022/04/05 01:02:45;;;;;;;10.53;9.63;;;5.80;99.40;;;6.57;60.86;97366.78;5208971;28;20211;-59
2022/04/05 01:05:18;;;;;;;10.37;9.57;;;5.80;99.70;;;6.60;60.37;97358.47;5211824;28;21029;-58
2022/04/05 01:07:52;;;;;;;10.30;9.40;;;5.80;99.70;;;6.59;60.68;97354.19;5206906;28;20193;-58
2022/04/05 01:10:27;;;;;;;10.33;9.33;;;5.80;99.50;;;6.64;60.81;97353.69;5205478;28;20198;-56
2022/04/05 01:13:00;;;;;;;10.53;9.47;;;5.80;99.70;;;6.67;60.60;97360.63;5204716;28;20194;-57
2022/04/05 01:15:54;;;;;;;11.23;10.23;;;5.90;99.90;;;6.50;61.86;97354.47;5203055;28;20221;-58
2022/04/05 01:18:27;;;;;;;10.53;9.53;;;5.80;99.90;;;6.73;61.80;97353.41;5206822;28;20583;-59
2022/04/05 01:21:00;;;;;;;10.83;9.93;;;5.80;99.90;;;6.62;62.58;97334.94;5206155;28;20193;-59
2022/04/05 01:23:33;;;;;;;10.53;9.53;;;5.90;99.90;;;6.57;63.92;97345.59;5205204;28;20222;-57
2022/04/05 01:26:09;;;;;;;10.43;9.43;;;5.80;99.90;;;6.60;63.02;97339.03;5206034;28;20217;-56
2022/04/05 01:28:42;;;;;;;10.13;9.13;;;5.80;99.90;;;6.50;64.05;97344.31;5204158;28;20271;-58
2022/04/05 01:31:15;;;;;;;10.33;9.30;;;5.70;99.90;;;6.45;65.45;97341.47;5205883;28;20704;-60
2022/04/05 01:33:48;;;;;;;11.13;10.13;;;5.70;99.90;;;6.48;66.24;97335.72;5205917;28;20206;-58
2022/04/05 01:36:22;;;;;;;11.07;10.13;;;5.70;99.90;;;6.39;66.67;97330.94;5204810;28;20669;-59
2022/04/05 01:38:55;;;;;;;11.20;10.20;;;5.70;99.90;;;6.38;67.05;97329.19;5205334;28;20233;-60
2022/04/05 01:41:30;;;;;;;11.63;10.63;;;5.60;99.90;;;6.29;68.42;97336.19;5206325;28;20253;-60
2022/04/05 01:44:05;;;;;;;10.83;9.73;;;5.60;99.90;;;6.39;68.63;97330.06;5204974;28;20253;-57
2022/04/05 01:46:38;;;;;;;10.23;9.40;;;5.60;99.90;;;6.36;67.92;97327.31;5202953;28;20324;-58
2022/04/05 01:49:13;;;;;;;10.10;9.27;;;5.60;99.90;;;6.27;68.83;97325.94;5200230;28;20205;-59
2022/04/05 01:51:47;;;;;;;10.70;9.83;;;5.50;99.90;;;6.28;68.52;97326.81;5206551;28;20620;-60
2022/04/05 01:54:20;;;;;;;11.87;10.17;;;5.50;99.90;;;6.25;69.79;97322.44;5204414;28;20245;-58
2022/04/05 01:56:55;;;;;;;10.90;9.87;;;5.50;99.90;;;6.24;68.79;97320.69;5206195;28;20711;-59
2022/04/05 01:59:30;;;;;;;10.93;9.93;;;5.50;99.90;;;6.21;69.37;97322.13;5204899;28;20224;-59
2022/04/05 02:02:06;;;;;;;11.67;10.47;;;5.50;99.90;;;6.15;70.89;97320.06;5201912;28;20284;-59
2022/04/05 02:04:40;;;;;;;10.97;10.07;;;5.40;99.90;;;6.19;70.00;97316.97;5206689;28;20240;-59
2022/04/05 02:07:15;;;;;;;11.50;10.40;;;5.40;99.90;;;6.18;70.02;97315.22;5206629;28;20201;-60
2022/04/05 02:09:50;;;;;;;10.93;9.97;;;5.40;99.90;;;6.13;70.15;97318.22;5208227;28;20601;-59
2022/04/05 02:12:24;;;;;;;10.77;9.77;;;5.40;99.90;;;6.21;70.21;97317.94;5202576;28;20263;-59
2022/04/05 02:14:57;;;;;;;11.43;10.33;;;5.40;99.90;;;6.27;70.10;97304.78;5208076;28;20236;-59
2022/04/05 02:17:30;;;;;;;11.00;10.10;;;5.50;99.90;;;6.19;71.03;97316.97;5200428;28;20576;-60
2022/04/05 02:20:05;;;;;;;11.37;10.40;;;5.40;99.90;;;6.30;70.24;97310.91;5209424;28;20233;-60
2022/04/05 02:22:38;;;;;;;11.27;10.27;;;5.40;99.90;;;6.14;71.37;97310.69;5205001;28;20303;-58
2022/04/05 02:25:11;;;;;;;11.80;10.83;;;5.40;99.90;;;6.23;69.37;97308.75;5208750;28;20309;-60
2022/04/05 02:27:47;;;;;;;11.17;10.07;;;5.50;99.90;;;6.09;71.33;97312.97;5201441;28;20289;-60
2022/04/05 02:30:20;;;;;;;11.17;10.27;;;5.40;99.90;;;6.17;71.48;97318.50;5205963;28;20224;-60
2022/04/05 02:32:53;;;;;;;10.90;10.00;;;5.40;99.90;;;6.12;72.71;97314.78;5201196;28;20205;-60
2022/04/05 02:35:26;;;;;;;11.67;10.57;;;5.40;99.90;;;6.14;72.16;97313.25;5204809;28;20221;-60
2022/04/05 02:38:00;;;;;;;11.67;10.67;;;5.30;99.90;;;6.08;73.19;97300.16;5203839;28;20264;-60
2022/04/05 02:40:33;;;;;;;11.77;10.77;;;5.40;99.90;;;6.02;73.45;97302.31;5207591;28;20221;-60
2022/04/05 02:43:08;;;;;;;11.13;10.20;;;5.30;99.90;;;6.01;74.20;97290.38;5205055;28;20313;-53
2022/04/05 02:45:41;;;;;;;11.90;10.80;;;5.30;99.90;;;6.00;74.38;97301.31;5205344;28;20218;-60
2022/04/05 02:48:14;;;;;;;10.90;9.93;;;5.30;99.90;;;5.97;75.14;97306.19;5204120;28;20735;-61
2022/04/05 02:50:47;;;;;;;11.53;10.37;;;5.20;99.90;;;5.88;76.43;97309.84;5203218;28;20194;-61
2022/04/05 02:53:21;;;;;;;11.93;10.93;;;5.20;99.90;;;5.91;77.39;97308.28;5201734;28;20634;-62
2022/04/05 02:55:54;;;;;;;12.10;11.00;;;5.20;99.90;;;5.80;77.73;97305.91;5203664;28;20215;-62
2022/04/05 02:58:29;;;;;;;12.47;11.17;;;5.20;99.90;;;5.83;78.53;97313.72;5203071;28;20234;-61
2022/04/05 03:01:02;;;;;;;12.20;11.13;;;5.10;99.90;;;5.79;78.10;97303.28;5209326;28;20281;-62
2022/04/05 03:03:35;;;;;;;12.40;11.10;;;5.20;99.90;;;5.74;78.74;97295.38;5196000;28;20616;-61
2022/04/05 03:06:10;;;;;;;12.10;10.93;;;5.10;99.90;;;5.74;79.25;97299.56;5202446;28;20753;-61
2022/04/05 03:08:43;;;;;;;11.97;10.97;;;5.10;99.90;;;5.68;79.60;97300.03;5207685;28;20216;-62
2022/04/05 03:11:16;;;;;;;13.37;12.23;;;5.00;99.90;;;5.56;80.71;97299.22;5208233;28;20272;-62
2022/04/05 03:13:54;;;;;;;11.83;10.83;;;5.00;99.90;;;5.53;81.73;97291.44;5205126;28;20240;-62
2022/04/05 03:16:27;;;;;;;11.87;10.83;;;4.90;99.90;;;5.45;81.85;97301.03;5206577;28;20618;-62
2022/04/05 03:19:00;;;;;;;12.67;11.37;;;4.80;99.90;;;5.43;83.06;97297.50;5204309;28;20201;-60
2022/04/05 03:21:33;;;;;;;13.43;12.20;;;4.80;99.90;;;5.39;83.89;97298.97;5201754;28;20281;-58
2022/04/05 03:24:07;;;;;;;13.53;12.30;;;4.80;99.90;;;5.35;84.70;97289.41;5201850;28;20287;-58
2022/04/05 03:26:40;;;;;;;13.70;11.73;;;4.70;99.90;;;5.32;85.12;97296.81;5201453;28;20209;-61
2022/04/05 03:29:14;;;;;;;13.00;11.90;;;4.80;99.90;;;5.36;85.54;97293.69;5204808;28;20229;-60
2022/04/05 03:31:48;;;;;;;13.20;12.00;;;4.70;99.90;;;5.29;85.92;97298.22;5202219;28;20609;-60
2022/04/05 03:34:21;;;;;;;13.30;11.93;;;4.70;99.90;;;5.28;87.01;97297.34;5201943;28;20312;-59
2022/04/05 03:36:55;;;;;;;13.33;12.13;;;4.70;99.90;;;5.27;87.82;97290.53;5203712;28;20236;-59
2022/04/05 03:39:28;;;;;;;12.73;11.53;;;4.70;99.90;;;5.20;87.81;97298.47;5203420;28;20298;-57
2022/04/05 03:42:01;;;;;;;12.60;11.53;;;4.60;99.90;;;5.23;88.72;97303.75;5200057;28;20221;-60
2022/04/05 03:44:35;;;;;;;14.47;13.07;;;4.60;99.90;;;5.25;89.07;97303.88;5199157;28;20782;-59
2022/04/05 03:47:09;;;;;;;15.27;13.73;;;4.60;99.90;;;5.21;90.03;97295.19;5213633;28;20295;-60
2022/04/05 03:49:42;;;;;;;15.10;13.63;;;4.60;99.90;;;5.17;90.51;97289.00;5206992;28;20613;-61
2022/04/05 03:52:15;;;;;;;14.70;13.30;;;4.60;99.90;;;5.23;90.59;97293.63;5207071;28;20625;-60
2022/04/05 03:54:48;;;;;;;13.93;12.63;;;4.60;99.90;;;5.19;90.99;97299.28;5207791;28;20246;-59
2022/04/05 03:57:22;;;;;;;14.47;13.07;;;4.60;99.90;;;5.15;91.44;97297.28;5210767;28;20609;-60
2022/04/05 03:59:56;;;;;;;14.27;12.87;;;4.50;99.90;;;5.13;91.18;97296.31;5206839;28;20281;-60
2022/04/05 04:02:34;;;;;;;14.77;13.47;;;4.50;99.90;;;5.15;91.42;97297.28;5197847;28;20236;-59
2022/04/05 04:05:08;;;;;;;15.33;13.70;;;4.50;99.90;;;5.11;91.83;97290.25;5207284;28;20229;-59
2022/04/05 04:07:41;;;;;;;15.23;13.63;;;4.50;99.90;;;5.09;92.48;97289.25;5214261;28;20614;-57
2022/04/05 04:10:14;;;;;;;15.97;14.40;;;4.50;99.90;;;5.10;92.71;97296.13;5203453;28;20292;-52
2022/04/05 04:12:47;;;;;;;14.83;13.33;;;4.50;99.90;;;5.04;92.92;97299.09;5197915;28;20229;-55
2022/04/05 04:15:22;;;;;;;15.20;13.80;;;4.50;99.90;;;5.04;93.07;97298.22;5200911;28;20623;-57
2022/04/05 04:17:55;;;;;;;14.20;12.87;;;4.40;99.90;;;5.03;93.23;97284.66;5200521;28;20237;-52
2022/04/05 04:20:28;;;;;;;15.40;14.00;;;4.40;99.90;;;5.06;93.36;97292.47;5197932;28;20292;-50
2022/04/05 04:23:01;;;;;;;16.77;15.00;;;4.40;99.90;;;5.03;94.03;97294.78;5197857;28;20237;-52
2022/04/05 04:25:34;;;;;;;15.90;14.40;;;4.50;99.90;;;5.00;94.97;97293.72;5199293;28;20302;-56
2022/04/05 04:28:09;;;;;;;16.23;14.63;;;4.50;99.90;;;5.01;94.65;97298.00;5201034;28;20709;-51
2022/04/05 04:30:43;;;;;;;16.33;14.73;;;4.50;99.90;;;5.00;94.73;97288.63;5198555;28;20206;-50
2022/04/05 04:33:16;;;;;;;15.43;14.03;;;4.50;99.90;;;4.99;94.82;97280.16;5199612;28;20296;-51
2022/04/05 04:35:50;;;;;;;16.03;14.53;;;4.40;99.90;;;4.99;95.15;97272.56;5202560;28;20686;-53
2022/04/05 04:38:24;;;;;;;16.07;14.47;;;4.40;99.90;;;5.00;95.09;97279.38;5201327;28;20737;-52
2022/04/05 04:40:57;;;;;;;17.93;16.13;;;4.40;99.90;;;4.99;95.48;97277.63;5200956;28;20229;-54
2022/04/05 04:43:30;;;;;;;17.87;16.03;;;4.40;99.90;;;5.00;95.04;97281.03;5201485;28;20292;-54
2022/04/05 04:46:07;;;;;;;16.37;14.90;;;4.40;99.90;;;5.00;95.28;97288.63;5200666;28;20295;-54
2022/04/05 04:48:41;;;;;;;16.43;14.87;;;4.40;99.90;;;5.04;94.50;97275.44;5202116;28;20216;-55
2022/04/05 04:51:14;;;;;;;16.47;14.93;;;4.40;99.90;;;5.03;93.97;97283.78;5203383;28;20236;-56
2022/04/05 04:53:47;;;;;;;15.13;13.73;;;4.40;99.90;;;5.00;93.67;97284.44;5199760;28;20635;-56
2022/04/05 04:56:20;;;;;;;14.97;13.63;;;4.40;99.90;;;4.95;93.66;97280.72;5199686;28;20825;-56
2022/04/05 04:58:53;;;;;;;15.57;14.10;;;4.40;99.90;;;5.00;93.50;97289.50;5201560;28;20226;-54
2022/04/05 05:01:28;;;;;;;15.13;13.60;;;4.40;99.90;;;4.96;93.61;97285.91;5203612;28;20251;-54
2022/04/05 05:04:01;;;;;;;15.77;14.23;;;4.40;99.90;;;5.02;93.46;97287.97;5201700;28;20978;-54
2022/04/05 05:06:34;;;;;;;15.33;13.73;;;4.40;99.90;;;4.99;93.46;97289.44;5207731;28;20604;-51
2022/04/05 05:09:07;;;;;;;15.50;13.97;;;4.40;99.90;;;4.90;93.55;97297.28;5205523;28;20288;-51
2022/04/05 05:11:40;;;;;;;15.73;14.33;;;4.30;99.90;;;4.86;93.79;97288.56;5205766;28;20287;-54
2022/04/05 05:14:14;;;;;;;15.17;13.77;;;4.30;99.90;;;4.80;93.84;97290.66;5201109;28;20255;-55
2022/04/05 05:16:48;;;;;;;15.50;14.03;;;4.20;99.90;;;4.81;94.31;97300.03;5199196;28;20202;-53
2022/04/05 05:19:21;;;;;;;16.40;14.97;;;4.30;99.90;;;4.84;94.15;97300.25;5201837;28;20209;-55
2022/04/05 05:21:55;;;;;;;16.23;14.63;;;4.30;99.90;;;4.88;94.05;97294.63;5202762;28;20211;-56
2022/04/05 05:24:28;;;;;;;15.10;13.70;;;4.30;99.90;;;4.85;94.21;97303.66;5201640;28;20260;-53
2022/04/05 05:27:01;;;;;;;15.63;14.17;;;4.30;99.90;;;4.77;94.88;97304.78;5199622;28;20665;-55
2022/04/05 05:29:34;;;;;;;15.30;13.90;;;4.30;99.90;;;4.83;95.22;97307.72;5204198;28;20612;-53
2022/04/05 05:32:09;;;;;;;17.17;15.57;;;4.30;99.90;;;4.89;95.18;97306.53;5204842;28;20323;-57
2022/04/05 05:34:42;;;;;;;15.93;14.40;;;4.30;99.90;;;4.95;95.02;97311.09;5203650;28;20310;-54
2022/04/05 05:37:17;;;;;;;16.37;14.80;;;4.40;99.90;;;5.08;94.43;97302.72;5208499;28;20212;-53
2022/04/05 05:39:50;;;;;;;16.73;14.33;;;4.40;99.90;;;5.11;93.70;97310.53;5203520;28;20234;-53
2022/04/05 05:42:23;;;;;;;17.43;13.87;;;4.50;99.90;;;5.01;94.19;97314.09;5207068;28;20314;-54
2022/04/05 05:44:57;;;;;;;14.93;13.53;;;4.50;99.90;;;5.06;94.02;97315.25;5204837;28;20767;-57
2022/04/05 05:47:31;;;;;;;15.97;14.37;;;4.40;99.90;;;5.02;94.39;97318.38;5204351;28;20248;-58
2022/04/05 05:50:05;;;;;;;16.87;15.17;;;4.50;99.90;;;5.00;94.41;97306.38;5201667;28;20243;-53
2022/04/05 05:52:38;;;;;;;18.53;15.03;;;4.50;99.90;;;5.04;95.19;97309.22;5202151;28;20250;-59
2022/04/05 05:55:14;;;;;;;16.60;14.90;;;4.50;99.90;;;5.09;95.26;97312.06;5205076;28;20311;-56
2022/04/05 05:57:47;;;;;;;15.43;13.83;;;4.50;99.90;;;5.11;94.78;97310.53;5204275;28;20287;-56
2022/04/05 06:00:22;;;;;;;15.17;13.77;;;4.50;99.90;;;5.08;95.80;97308.66;5213010;28;20293;-56
2022/04/05 06:03:01;;;;;;;15.97;14.33;;;4.50;99.90;;;5.08;96.13;97311.19;5208102;28;20567;-56
2022/04/05 06:05:36;;;;;;;15.57;13.97;;;4.50;99.90;;;5.10;96.43;97316.38;5207261;28;20239;-55
2022/04/05 06:08:09;;;;;;;17.20;15.57;;;4.50;99.90;;;5.11;96.32;97318.13;5214686;28;20312;-55
2022/04/05 06:10:42;;;;;;;15.93;14.27;;;4.50;99.90;;;5.17;95.79;97324.47;5215214;28;20299;-56
2022/04/05 06:13:16;;;;;;;16.57;15.00;;;4.50;99.90;;;5.17;96.08;97328.66;5199637;28;20226;-56
2022/04/05 06:15:49;;;;;;;15.63;14.03;;;4.50;99.90;;;5.19;96.92;97327.13;5201218;28;20245;-55
2022/04/05 06:18:23;;;;;;;16.60;14.63;;;4.50;99.90;;;5.21;96.51;97330.66;5205078;28;20236;-56
2022/04/05 06:20:56;;;;;;;17.07;15.30;;;4.60;99.90;;;5.16;97.12;97326.94;5217085;28;20254;-57
2022/04/05 06:23:30;;;;;;;16.37;14.87;;;4.60;99.90;;;5.27;96.78;97331.06;5202890;28;20271;-56
2022/04/05 06:26:06;;;;;;;15.83;14.13;;;4.50;99.90;;;5.24;97.45;97328.34;5206002;28;20264;-55
2022/04/05 06:28:39;;;;;;;15.83;14.43;;;4.60;99.90;;;5.29;97.45;97328.63;5216941;28;20240;-58
2022/04/05 06:31:12;;;;;;;16.17;14.67;;;4.60;99.90;;;5.26;97.26;97341.97;5209730;28;20204;-54
2022/04/05 06:33:46;;;;;;;16.03;14.63;;;4.60;99.90;;;5.28;97.53;97337.91;5210212;28;20311;-58
2022/04/05 06:36:19;;;;;;;15.70;14.10;;;4.60;99.90;;;5.41;96.46;97345.56;5223077;28;20607;-56
2022/04/05 06:38:53;;;;;;;15.97;14.57;;;4.70;99.90;;;5.50;96.04;97335.19;5216339;28;20628;-56
2022/04/05 06:41:27;;;;;;;15.77;14.37;;;4.70;99.90;;;5.49;96.32;97343.53;5205381;28;20200;-56
2022/04/05 06:44:00;;;;;;;15.93;14.27;;;4.70;99.90;;;5.41;97.46;97335.44;5205362;28;20247;-57
2022/04/05 06:46:36;;;;;;;16.10;14.70;;;4.70;99.90;;;5.39;97.92;97336.09;5205895;28;20202;-56
2022/04/05 06:49:11;;;;;;;15.73;14.13;;;4.70;99.90;;;5.43;98.22;97338.06;5207768;28;20202;-55
2022/04/05 06:51:44;;;;;;;16.90;15.30;;;4.70;99.90;;;5.45;99.51;97340.72;5206434;28;20201;-58
2022/04/05 06:54:17;;;;;;;17.60;15.90;;;4.80;99.90;;;5.55;99.43;97338.00;5207444;28;20634;-56
2022/04/05 06:56:50;;;;;;;17.87;16.17;;;4.80;99.90;;;5.57;98.82;97339.00;5209232;28;20273;-55
2022/04/05 06:59:24;;;;;;;15.33;13.93;;;4.90;99.90;;;5.67;98.43;97338.84;5201249;28;20237;-59
2022/04/05 07:01:57;;;;;;;16.07;14.67;;;4.90;99.90;;;5.68;98.57;97330.47;5208482;28;20224;-58
2022/04/05 07:04:32;;;;;;;16.27;14.67;;;4.90;99.90;;;5.73;98.69;97329.13;5209294;28;20258;-57
2022/04/05 07:07:05;;;;;;;16.60;14.90;;;5.00;99.90;;;5.78;99.78;97327.78;5204506;28;20282;-56
2022/04/05 07:09:38;;;;;;;16.13;14.53;;;5.00;99.90;;;5.77;100.00;97332.72;5208687;28;20280;-56
2022/04/05 07:12:11;;;;;;;17.47;15.40;;;5.00;99.90;;;5.80;100.00;97330.41;5206919;28;20733;-57
2022/04/05 07:14:44;;;;;;;16.47;14.97;;;5.10;99.90;;;5.82;100.00;97328.84;5200547;28;20244;-55
2022/04/05 07:17:17;;;;;;;16.77;15.10;;;5.10;99.90;;;5.83;100.00;97334.00;5211941;28;20197;-56
2022/04/05 07:19:52;;;;;;;16.03;14.53;;;5.10;99.90;;;5.88;100.00;97329.25;5207569;28;20277;-57
2022/04/05 07:22:26;;;;;;;15.60;14.10;;;5.10;99.90;;;5.84;100.00;97335.78;5217122;28;20271;-56
2022/04/05 07:24:59;;;;;;;16.33;14.67;;;5.10;99.90;;;5.81;100.00;97332.19;5210025;28;20724;-57
2022/04/05 07:27:32;;;;;;;14.93;13.53;;;5.10;99.90;;;5.93;100.00;97332.09;5216504;28;20650;-57
2022/04/05 07:30:07;;;;;;;15.93;14.33;;;5.10;99.90;;;5.95;100.00;97340.72;5204245;28;20244;-57
2022/04/05 07:32:42;;;;;;;15.53;13.97;;;5.20;99.90;;;5.95;100.00;97331.47;5210675;28;20237;-55
2022/04/05 07:35:18;;;;;;;16.07;14.57;;;5.10;99.90;;;6.00;99.77;97329.22;5218193;28;20259;-56
2022/04/05 07:37:51;;;;;;;14.90;13.53;;;5.20;99.90;;;6.06;100.00;97333.03;5208895;28;20233;-56
2022/04/05 07:40:27;;;;;;;15.43;14.00;;;5.20;99.90;;;6.08;100.00;97323.00;5216844;28;20576;-54
2022/04/05 07:43:00;;;;;;;16.80;15.30;;;5.20;99.90;;;6.11;100.00;97323.19;5208867;28;20204;-57
2022/04/05 07:45:33;;;;;;;16.17;14.57;;;5.30;99.90;;;6.24;100.00;97329.97;5204758;28;20324;-59
2022/04/05 07:48:08;;;;;;;14.73;13.43;;;5.40;99.90;;;6.20;100.00;97326.31;5202973;28;20543;-57
2022/04/05 07:50:42;;;;;;;15.13;13.73;;;5.40;99.90;;;6.25;100.00;97331.69;5198256;28;20299;-54
2022/04/05 07:53:17;;;;;;;15.30;13.80;;;5.50;99.90;;;6.24;100.00;97325.75;5207919;28;20197;-60
2022/04/05 07:55:51;;;;;;;14.47;13.13;;;5.50;99.90;;;6.31;100.00;97332.97;5201327;28;20214;-56
2022/04/05 07:58:24;;;;;;;15.20;13.73;;;5.60;99.90;;;6.41;100.00;97336.09;5210251;28;20233;-60
2022/04/05 08:00:57;;;;;;;15.53;13.93;;;5.70;99.90;;;6.46;100.00;97333.06;5203763;28;20225;-56
2022/04/05 08:03:30;;;;;;;15.33;13.83;;;5.70;99.90;;;6.50;100.00;97329.97;5206221;28;20224;-56
2022/04/05 08:06:05;;;;;;;14.03;12.80;;;5.70;99.90;;;6.54;100.00;97343.72;5206117;28;20762;-56
2022/04/05 08:08:38;;;;;;;14.47;13.13;;;5.80;99.90;;;6.63;100.00;97339.22;5208007;28;20221;-59
2022/04/05 08:11:34;;;;;;;13.97;12.57;;;5.80;99.90;;;6.58;100.00;97334.63;5208017;28;20204;-56
2022/04/05 08:14:07;;;;;;;14.63;13.03;;;5.80;99.90;;;6.57;100.00;97338.84;5207896;28;20240;-54
2022/04/05 08:16:40;;;;;;;14.77;13.37;;;5.80;99.90;;;6.61;100.00;97340.81;5208492;28;20642;-57
2022/04/05 08:19:14;;;;;;;14.80;13.33;;;5.80;99.90;;;6.74;100.00;97334.84;5203012;28;20257;-58
2022/04/05 08:21:48;;;;;;;14.23;12.90;;;5.90;99.90;;;6.80;100.00;97350.47;5205303;28;20294;-59
2022/04/05 08:24:21;;;;;;;14.23;12.73;;;5.90;99.90;;;6.81;100.00;97347.16;5211659;28;20322;-58
2022/04/05 08:26:54;;;;;;;13.90;12.53;;;6.00;99.90;;;6.83;100.00;97350.66;5217740;28;20240;-57
2022/04/05 08:29:28;;;;;;;13.97;12.70;;;6.00;99.90;;;6.80;100.00;97350.47;5216150;28;20201;-54
2022/04/05 08:32:01;;;;;;;14.40;12.97;;;6.00;99.90;;;6.81;100.00;97352.25;5205805;28;20285;-57
2022/04/05 08:34:35;;;;;;;13.63;12.33;;;6.00;99.90;;;6.78;100.00;97352.00;5211840;28;20306;-56
2022/04/05 08:37:09;;;;;;;13.83;12.53;;;5.90;99.90;;;6.72;100.00;97357.63;5213118;28;20225;-54
2022/04/05 08:39:43;;;;;;;13.80;12.50;;;5.90;99.90;;;6.81;100.00;97351.31;5213004;28;20232;-54
2022/04/05 08:42:16;;;;;;;14.17;12.87;;;5.90;99.90;;;6.89;100.00;97360.31;5202817;28;20230;-53
2022/04/05 08:44:50;;;;;;;14.37;13.00;;;6.00;99.90;;;6.91;100.00;97358.75;5203840;28;20744;-56
2022/04/05 08:47:26;;;;;;;14.27;12.87;;;6.10;99.90;;;6.99;100.00;97363.53;5203743;28;20253;-57
2022/04/05 08:50:00;;;;;;;14.00;12.70;;;6.20;99.90;;;7.13;100.00;97354.25;5203738;28;20216;-57
2022/04/05 08:52:35;;;;;;;13.23;12.03;;;6.20;99.90;;;7.19;100.00;97362.22;5202969;28;20289;-56
2022/04/05 08:55:08;;;;;;;14.13;12.73;;;6.30;99.90;;;7.27;100.00;97365.25;5201894;28;20659;-58
2022/04/05 08:57:42;;;;;;;14.20;12.90;;;6.30;99.90;;;7.16;100.00;97362.06;5207021;28;20631;-57
2022/04/05 09:00:19;;;;;;;13.10;12.00;;;6.30;99.90;;;7.20;100.00;97363.09;5203602;28;20214;-55
2022/04/05 09:02:58;;;;;;;14.47;13.07;;;6.30;99.90;;;7.30;100.00;97359.50;5197831;28;20202;-58
2022/04/05 09:05:35;;;;;;;13.77;12.47;;;6.30;99.90;;;7.25;100.00;97360.88;5198809;28;20224;-57
2022/04/05 09:08:22;;;;;;;13.37;12.17;;;6.30;99.90;;;7.28;100.00;97361.91;5206366;28;20216;-55
2022/04/05 09:11:12;;;;;;;13.67;12.47;;;6.40;99.90;;;7.35;100.00;97358.94;5206726;28;20205;-59
2022/04/05 09:13:58;;;;;;;13.67;12.27;;;6.50;99.90;;;7.49;100.00;97352.16;5196861;28;20241;-58
2022/04/05 09:16:33;;;;;;;14.17;12.87;;;6.60;99.90;;;7.45;100.00;97355.31;5201497;28;20247;-59
2022/04/05 09:19:14;;;;;;;13.97;12.67;;;6.60;99.90;;;7.41;100.00;97351.72;5205801;28;20193;-56
2022/04/05 09:21:53;;;;;;;14.30;12.90;;;6.60;99.90;;;7.50;100.00;97353.03;5202732;28;20658;-57
2022/04/05 09:24:35;;;;;;;15.03;13.57;;;6.70;99.90;;;7.53;100.00;97351.59;5208733;28;20685;-58
2022/04/05 09:27:09;;;;;;;15.07;13.67;;;6.80;99.90;;;7.63;100.00;97356.44;5203999;28;20209;-60
2022/04/05 09:29:43;;;;;;;13.43;12.23;;;6.80;99.90;;;7.60;100.00;97366.41;5216382;28;20237;-56
2022/04/05 09:32:34;;;;;;;14.50;13.03;;;6.80;99.90;;;7.64;100.00;97353.13;5213473;28;20291;-59
2022/04/05 09:35:08;;;;;;;12.87;11.70;;;6.80;99.90;;;7.67;100.00;97357.50;5207749;28;20214;-57
2022/04/05 09:37:41;;;;;;;13.73;12.53;;;6.80;99.90;;;7.72;100.00;97360.31;5210531;28;20288;-60
2022/04/05 09:40:26;;;;;;;13.23;12.13;;;6.80;99.90;;;7.71;100.00;97361.09;5215264;28;20251;-59
2022/04/05 09:43:22;;;;;;;13.87;12.57;;;6.80;99.90;;;7.79;100.00;97357.38;5210399;28;20658;-59
2022/04/05 09:45:58;;;;;;;13.30;12.00;;;6.80;99.90;;;7.78;100.00;97358.13;5216837;28;20231;-57
2022/04/05 09:48:35;;;;;;;13.57;12.27;;;6.90;99.90;;;7.78;100.00;97360.66;5212491;28;20213;-59
2022/04/05 09:51:11;;;;;;;13.87;12.47;;;6.90;99.90;;;7.81;100.00;97361.75;5200692;28;20216;-57
2022/04/05 09:53:50;;;;;;;13.73;12.53;;;6.90;99.90;;;7.79;100.00;97367.53;5206983;28;20220;-57
2022/04/05 09:56:27;;;;;;;13.87;12.67;;;6.90;99.90;;;7.85;100.00;97367.91;5198126;28;20202;-59
2022/04/05 09:59:04;;;;;;;14.40;13.17;;;7.00;99.90;;;7.89;100.00;97369.81;5196087;28;20282;-58
2022/04/05 10:01:37;;;;;;;13.13;11.87;;;7.00;99.90;;;7.91;100.00;97368.25;5200684;28;20573;-58
2022/04/05 10:04:13;;;;;;;13.90;12.60;;;7.00;99.90;;;7.94;100.00;97362.47;5201438;28;20828;-60
2022/04/05 10:06:48;;;;;;;13.53;12.33;;;7.10;99.90;;;7.93;100.00;97371.78;5196778;28;20681;-58
2022/04/05 10:09:22;;;;;;;14.10;12.70;;;7.10;99.90;;;7.94;100.00;97363.34;5195774;28;20259;-56
2022/04/05 10:11:59;;;;;;;12.93;11.73;;;7.10;99.90;;;7.94;100.00;97362.47;5195521;28;20271;-57
2022/04/05 10:14:32;;;;;;;13.97;12.57;;;7.10;99.90;;;7.90;100.00;97372.47;5197363;28;20271;-57
2022/04/05 10:17:05;;;;;;;13.60;12.30;;;7.10;99.90;;;7.92;100.00;97364.03;5200060;28;20229;-60
2022/04/05 10:19:40;;;;;;;13.60;12.33;;;7.10;99.90;;;7.98;100.00;97360.19;5201143;28;20211;-60
2022/04/05 10:22:14;;;;;;;13.33;12.07;;;7.10;99.90;;;8.02;100.00;97363.81;5203511;28;20230;-60
2022/04/05 10:24:52;;;;;;;13.37;12.07;;;7.20;99.90;;;8.06;100.00;97364.06;5205062;28;20267;-58
2022/04/05 10:27:27;;;;;;;13.10;11.90;;;7.20;99.90;;;8.14;100.00;97361.97;5192842;28;20284;-57
2022/04/05 10:30:09;;;;;;;13.27;11.97;;;7.10;99.90;;;8.10;99.29;97360.91;5193551;28;20198;-58
2022/04/05 10:32:53;;;;;;;12.60;11.37;;;7.10;99.90;;;8.13;100.00;97361.09;5200174;28;20210;-60
2022/04/05 10:35:27;;;;;;;12.73;11.53;;;7.10;99.90;;;8.23;100.00;97361.63;5199597;28;20249;-60
2022/04/05 10:38:12;;;;;;;11.93;10.83;;;7.10;99.90;;;8.18;99.77;97357.94;5202022;28;20216;-61
2022/04/05 10:41:14;;;;;;;12.87;11.50;;;7.20;99.90;;;8.14;100.00;97361.97;5203275;28;20221;-60
2022/04/05 10:44:21;;;;;;;12.90;11.70;;;7.20;99.90;;;8.07;100.00;97353.09;5200784;28;20225;-60
2022/04/05 10:46:57;;;;;;;13.33;12.03;;;7.10;99.90;;;8.09;100.00;97355.72;5198030;28;20634;-60
2022/04/05 10:49:54;;;;;;;12.27;11.00;;;7.20;99.90;;;8.13;100.00;97358.56;5198916;28;20653;-59